Time;durP1;ratioP1;P1;durP2;ratioP2;P2;SDS_P1;SDS_P2;PMS_P1;PMS_P2;Temp;Humidity;BMP_temperature;BMP_pressure;BME280_temperature;BME280_humidity;BME280_pressure;Samples;Min_cycle;Max_cycle;Signal;HPM_P1;HPM_P2
2024/02/04 00:02:24;;;;;;;2.63;2.17;;;24.20;56.30;;;;;;5032257;28;20445;-83
2024/02/04 00:04:51;;;;;;;3.73;2.00;;;24.20;56.30;;;;;;5032956;28;20826;-83
2024/02/04 00:07:18;;;;;;;2.93;2.50;;;24.20;56.30;;;;;;5033106;28;20798;-83
2024/02/04 00:09:45;;;;;;;5.87;1.87;;;24.20;56.30;;;;;;5032908;28;20844;-84
2024/02/04 00:12:13;;;;;;;3.23;2.20;;;24.20;56.20;;;;;;5033086;28;20460;-83
2024/02/04 00:14:40;;;;;;;3.20;2.43;;;24.20;56.30;;;;;;5032916;28;20949;-83
2024/02/04 00:17:06;;;;;;;2.80;2.10;;;24.20;56.30;;;;;;5032798;28;20472;-83
2024/02/04 00:19:33;;;;;;;2.40;2.03;;;24.20;56.30;;;;;;5032713;28;20804;-84
2024/02/04 00:22:00;;;;;;;2.90;2.10;;;24.20;56.80;;;;;;5033020;28;20739;-84
2024/02/04 00:24:27;;;;;;;4.60;2.33;;;24.20;56.20;;;;;;5033087;28;20456;-84
2024/02/04 00:26:54;;;;;;;2.37;1.90;;;24.20;56.30;;;;;;5032818;28;20434;-83
2024/02/04 00:29:22;;;;;;;2.10;1.70;;;24.10;56.20;;;;;;5032748;28;20496;-83
2024/02/04 00:31:49;;;;;;;3.70;2.50;;;24.10;56.20;;;;;;5032648;28;20949;-84
2024/02/04 00:34:16;;;;;;;2.53;1.97;;;24.10;56.20;;;;;;5032802;28;20957;-83
2024/02/04 00:36:42;;;;;;;3.10;2.10;;;24.10;56.20;;;;;;5032719;28;20439;-83
2024/02/04 00:39:09;;;;;;;2.20;2.00;;;24.10;56.20;;;;;;5032711;28;20449;-83
2024/02/04 00:41:36;;;;;;;2.30;1.90;;;24.10;56.20;;;;;;5032848;28;20446;-83
2024/02/04 00:44:03;;;;;;;2.73;2.13;;;24.10;56.20;;;;;;5032644;28;20926;-83
2024/02/04 00:46:31;;;;;;;3.30;2.27;;;24.10;56.20;;;;;;5032534;28;20445;-84
2024/02/04 00:48:58;;;;;;;2.53;2.07;;;24.10;56.20;;;;;;5032431;28;20596;-83
2024/02/04 00:51:25;;;;;;;2.03;1.63;;;24.00;56.10;;;;;;5032588;28;20434;-84
2024/02/04 00:53:52;;;;;;;2.50;2.30;;;24.00;56.20;;;;;;5032588;28;20457;-86
2024/02/04 00:56:19;;;;;;;3.20;2.03;;;24.00;56.10;;;;;;5032544;28;20438;-83
2024/02/04 00:58:47;;;;;;;2.93;1.97;;;24.00;56.20;;;;;;5032661;28;20438;-83
2024/02/04 01:01:14;;;;;;;2.27;1.83;;;24.00;56.20;;;;;;5032582;28;20434;-83
2024/02/04 01:03:42;;;;;;;2.30;1.80;;;24.00;56.20;;;;;;5032586;28;20430;-82
2024/02/04 01:06:09;;;;;;;3.93;2.37;;;24.00;56.20;;;;;;5036036;28;20438;-83
2024/02/04 01:08:37;;;;;;;2.07;1.83;;;24.00;56.20;;;;;;5036006;28;20496;-83
2024/02/04 01:11:04;;;;;;;3.07;2.17;;;24.00;56.20;;;;;;5036301;28;20500;-83
2024/02/04 01:13:31;;;;;;;1.97;1.57;;;24.00;56.20;;;;;;5035975;28;20529;-83
2024/02/04 01:15:58;;;;;;;2.50;2.10;;;24.00;56.20;;;;;;5036223;28;20438;-83
2024/02/04 01:18:25;;;;;;;2.77;2.00;;;24.00;56.20;;;;;;5035799;28;20450;-83
2024/02/04 01:20:53;;;;;;;2.17;1.53;;;24.00;56.20;;;;;;5035659;28;20804;-83
2024/02/04 01:23:19;;;;;;;2.53;1.47;;;24.00;56.20;;;;;;5035849;28;20810;-83
2024/02/04 01:25:46;;;;;;;2.30;1.93;;;23.90;56.20;;;;;;5035931;28;20469;-83
2024/02/04 01:28:13;;;;;;;4.20;2.30;;;23.90;56.20;;;;;;5035657;28;20568;-83
2024/02/04 01:30:40;;;;;;;2.37;1.70;;;23.90;56.20;;;;;;5035746;28;20446;-84
2024/02/04 01:33:07;;;;;;;2.10;1.57;;;24.00;56.30;;;;;;5017985;28;20434;-83
2024/02/04 01:35:34;;;;;;;2.43;1.77;;;23.90;56.20;;;;;;5035750;28;20442;-83
2024/02/04 01:38:02;;;;;;;2.20;1.60;;;23.90;56.20;;;;;;5035788;28;20430;-84
2024/02/04 01:40:28;;;;;;;7.23;1.80;;;23.90;56.20;;;;;;5035445;28;20434;-83
2024/02/04 01:42:56;;;;;;;2.50;1.77;;;23.90;56.20;;;;;;5035494;28;20438;-83
2024/02/04 01:45:22;;;;;;;2.00;1.60;;;23.90;56.20;;;;;;5035459;28;20438;-83
2024/02/04 01:47:50;;;;;;;2.47;1.70;;;23.90;56.20;;;;;;5034448;28;20450;-83
2024/02/04 01:50:18;;;;;;;2.80;1.40;;;23.80;56.80;;;;;;5033960;28;20505;-83
2024/02/04 01:52:45;;;;;;;2.10;1.60;;;23.80;56.20;;;;;;5034273;28;21004;-83
2024/02/04 01:55:14;;;;;;;1.70;1.40;;;23.80;56.20;;;;;;5034205;28;20444;-83
2024/02/04 01:57:41;;;;;;;2.17;1.63;;;23.80;56.20;;;;;;5034319;28;20449;-84
2024/02/04 02:00:12;;;;;;;2.03;1.40;;;23.80;56.20;;;;;;5034163;28;20470;-83
2024/02/04 02:02:40;;;;;;;2.13;1.57;;;23.80;56.20;;;;;;5034017;28;20855;-83
2024/02/04 02:05:08;;;;;;;1.70;1.40;;;23.80;56.20;;;;;;5034781;28;20434;-83
2024/02/04 02:07:35;;;;;;;2.53;1.63;;;23.80;56.20;;;;;;5034804;28;20449;-83
2024/02/04 02:10:05;;;;;;;2.40;1.67;;;23.80;56.20;;;;;;5034859;28;20490;-83
2024/02/04 02:12:40;;;;;;;2.37;1.70;;;23.80;56.20;;;;;;5035021;28;20926;-84
2024/02/04 02:15:12;;;;;;;2.40;1.60;;;23.80;56.20;;;;;;5034790;28;20457;-83
2024/02/04 02:17:49;;;;;;;2.10;1.57;;;23.80;56.20;;;;;;5034340;28;20505;-83
2024/02/04 02:20:22;;;;;;;1.90;1.40;;;23.80;56.20;;;;;;5034693;28;20867;-83
2024/02/04 02:22:50;;;;;;;2.50;1.60;;;23.80;56.20;;;;;;5034936;28;20562;-83
2024/02/04 02:25:21;;;;;;;2.43;1.40;;;23.80;56.20;;;;;;5034947;28;20480;-83
2024/02/04 02:27:49;;;;;;;1.87;1.37;;;23.80;56.20;;;;;;5034767;28;20457;-83
2024/02/04 02:30:16;;;;;;;2.50;1.53;;;23.80;56.20;;;;;;5034449;28;20536;-83
2024/02/04 02:32:44;;;;;;;2.17;1.40;;;23.80;56.20;;;;;;5034528;28;20865;-83
2024/02/04 02:35:12;;;;;;;2.27;1.60;;;23.80;56.20;;;;;;5036020;28;20454;-83
2024/02/04 02:37:44;;;;;;;1.97;1.23;;;23.80;56.20;;;;;;5035882;28;20505;-83
2024/02/04 02:40:17;;;;;;;1.80;1.30;;;23.80;56.20;;;;;;5035854;28;20452;-82
2024/02/04 02:42:48;;;;;;;1.80;1.43;;;24.00;56.30;;;;;;5039554;28;20437;-82
2024/02/04 02:45:16;;;;;;;1.70;1.33;;;23.90;56.20;;;;;;5047446;28;20533;-83
2024/02/04 02:47:45;;;;;;;3.43;1.53;;;23.90;56.20;;;;;;5047448;28;20434;-82
2024/02/04 02:50:13;;;;;;;2.10;1.70;;;23.90;56.20;;;;;;5037312;28;21031;-83
2024/02/04 02:52:39;;;;;;;2.20;1.50;;;23.90;56.20;;;;;;5021686;28;20577;-83
2024/02/04 02:55:07;;;;;;;1.90;1.50;;;23.90;56.20;;;;;;5014489;28;20785;-83
2024/02/04 02:57:34;;;;;;;1.77;1.20;;;23.90;56.20;;;;;;5014497;28;20435;-83
2024/02/04 03:00:03;;;;;;;2.07;1.57;;;23.90;56.20;;;;;;5014099;28;20445;-83
2024/02/04 03:02:30;;;;;;;1.80;1.33;;;23.90;56.20;;;;;;5014419;28;20526;-83
2024/02/04 03:04:56;;;;;;;2.23;1.60;;;23.90;56.20;;;;;;5014162;28;20442;-83
2024/02/04 03:07:23;;;;;;;2.00;1.40;;;23.90;56.20;;;;;;5014298;28;20431;-83
2024/02/04 03:09:50;;;;;;;2.10;1.70;;;24.00;56.20;;;;;;5014034;28;20491;-83
2024/02/04 03:12:17;;;;;;;1.70;1.37;;;23.90;56.20;;;;;;5014159;28;20435;-83
2024/02/04 03:14:44;;;;;;;3.97;1.57;;;23.90;56.20;;;;;;5014003;28;20447;-83
2024/02/04 03:17:13;;;;;;;1.53;1.20;;;23.90;56.20;;;;;;5014082;28;20442;-83
2024/02/04 03:19:40;;;;;;;1.87;1.30;;;23.90;56.10;;;;;;5013758;28;20463;-82
2024/02/04 03:22:06;;;;;;;1.80;1.10;;;23.90;56.10;;;;;;5013955;28;20821;-82
2024/02/04 03:24:33;;;;;;;1.63;1.40;;;23.90;56.10;;;;;;5013791;28;20461;-82
2024/02/04 03:27:00;;;;;;;2.17;1.20;;;23.90;56.10;;;;;;5013477;28;20539;-81
2024/02/04 03:29:27;;;;;;;1.90;1.40;;;23.90;56.10;;;;;;5012895;28;20494;-82
2024/02/04 03:31:54;;;;;;;1.87;1.40;;;23.90;56.10;;;;;;5013952;28;20445;-82
2024/02/04 03:34:22;;;;;;;2.00;1.43;;;23.90;56.10;;;;;;5013777;28;20439;-82
2024/02/04 03:36:49;;;;;;;1.80;1.43;;;23.90;56.10;;;;;;5013782;28;20435;-81
2024/02/04 03:39:16;;;;;;;1.70;1.10;;;24.00;56.20;;;;;;5013702;28;20450;-83
2024/02/04 03:41:43;;;;;;;1.70;1.20;;;23.90;56.10;;;;;;5013729;28;20435;-83
2024/02/04 03:44:10;;;;;;;2.00;1.40;;;23.90;56.10;;;;;;5013379;28;20435;-83
2024/02/04 03:46:39;;;;;;;1.60;1.37;;;23.90;56.10;;;;;;5013550;28;20445;-83
2024/02/04 03:49:06;;;;;;;1.97;1.27;;;23.90;56.10;;;;;;5013301;28;20522;-83
2024/02/04 03:51:34;;;;;;;2.07;1.30;;;23.90;56.10;;;;;;5013368;28;20471;-83
2024/02/04 03:54:01;;;;;;;1.60;1.20;;;23.90;56.10;;;;;;5013542;28;20802;-83
2024/02/04 03:56:28;;;;;;;1.80;1.30;;;23.90;56.10;;;;;;5013433;28;20443;-83
2024/02/04 03:58:54;;;;;;;1.67;1.20;;;23.90;56.10;;;;;;5013393;28;20945;-83
2024/02/04 04:01:21;;;;;;;2.10;1.27;;;23.90;56.10;;;;;;5013315;28;20438;-83
2024/02/04 04:03:48;;;;;;;1.63;1.30;;;23.90;56.10;;;;;;5013213;28;20439;-83
2024/02/04 04:06:15;;;;;;;1.90;1.23;;;23.90;56.10;;;;;;5013382;28;20439;-83
2024/02/04 04:08:43;;;;;;;2.00;1.57;;;23.90;56.10;;;;;;5013425;28;20441;-83
2024/02/04 04:11:11;;;;;;;1.60;1.17;;;23.90;56.10;;;;;;5013410;28;20447;-83
2024/02/04 04:13:37;;;;;;;1.80;1.30;;;23.90;56.10;;;;;;5013527;28;20449;-83
2024/02/04 04:16:05;;;;;;;1.50;1.20;;;23.90;56.10;;;;;;5013167;28;20442;-83
2024/02/04 04:18:32;;;;;;;2.00;1.40;;;23.90;56.10;;;;;;5013164;28;20481;-83
2024/02/04 04:20:58;;;;;;;2.23;1.80;;;23.90;56.10;;;;;;5014277;28;20453;-83
2024/02/04 04:23:25;;;;;;;1.70;1.40;;;23.90;56.10;;;;;;5013582;28;20443;-83
2024/02/04 04:25:53;;;;;;;1.60;1.10;;;23.90;56.10;;;;;;5013367;28;20436;-83
2024/02/04 04:28:20;;;;;;;1.90;1.33;;;23.90;56.10;;;;;;5013134;28;20439;-83
2024/02/04 04:30:47;;;;;;;1.60;1.10;;;23.90;56.10;;;;;;5013093;28;20490;-83
2024/02/04 04:33:14;;;;;;;1.70;1.13;;;23.90;56.20;;;;;;5013080;28;20447;-84
2024/02/04 04:35:40;;;;;;;1.90;1.43;;;23.80;56.10;;;;;;5013405;28;20431;-82
2024/02/04 04:38:07;;;;;;;1.60;1.30;;;23.80;56.10;;;;;;5012997;28;20431;-83
2024/02/04 04:40:34;;;;;;;2.10;1.50;;;23.80;56.10;;;;;;5016020;28;20457;-83
2024/02/04 04:43:03;;;;;;;1.77;1.13;;;24.00;56.20;;;;;;5017019;28;20443;-83
2024/02/04 04:45:29;;;;;;;1.60;1.13;;;23.90;56.20;;;;;;5016740;28;20510;-83
2024/02/04 04:47:56;;;;;;;1.97;1.27;;;23.80;56.10;;;;;;5017027;28;20434;-83
2024/02/04 04:50:23;;;;;;;1.90;1.20;;;23.80;56.10;;;;;;5016539;28;20577;-83
2024/02/04 04:52:50;;;;;;;1.87;1.30;;;23.80;56.10;;;;;;5016587;28;20478;-83
2024/02/04 04:55:17;;;;;;;1.80;1.53;;;23.80;56.10;;;;;;5016715;28;20441;-83
2024/02/04 04:57:43;;;;;;;2.97;1.23;;;23.90;56.40;;;;;;5016707;28;20465;-83
2024/02/04 05:00:13;;;;;;;1.90;1.30;;;23.90;56.10;;;;;;5016571;28;20926;-83
2024/02/04 05:02:42;;;;;;;1.60;1.40;;;23.80;56.10;;;;;;5016637;28;20446;-83
2024/02/04 05:05:09;;;;;;;2.00;1.30;;;23.90;56.20;;;;;;5016380;28;20442;-83
2024/02/04 05:07:36;;;;;;;1.60;1.20;;;23.90;56.70;;;;;;5016368;28;20449;-83
2024/02/04 05:10:03;;;;;;;2.13;1.53;;;23.90;56.10;;;;;;5016201;28;20494;-83
2024/02/04 05:12:30;;;;;;;1.53;1.10;;;23.90;56.10;;;;;;5016434;28;20781;-83
2024/02/04 05:14:57;;;;;;;2.20;1.20;;;23.90;56.10;;;;;;5016371;28;20438;-83
2024/02/04 05:17:25;;;;;;;2.27;1.13;;;23.90;56.10;;;;;;5016153;28;20446;-84
2024/02/04 05:19:52;;;;;;;1.70;1.30;;;23.90;56.10;;;;;;5016035;28;20553;-83
2024/02/04 05:22:18;;;;;;;1.50;1.10;;;23.90;56.10;;;;;;5016139;28;20447;-83
2024/02/04 05:24:45;;;;;;;1.80;1.30;;;23.90;56.00;;;;;;5016258;28;20439;-83
2024/02/04 05:27:12;;;;;;;1.60;1.20;;;23.90;56.00;;;;;;5015996;28;20443;-83
2024/02/04 05:29:39;;;;;;;1.90;1.40;;;23.90;56.00;;;;;;5015963;28;20989;-83
2024/02/04 05:32:07;;;;;;;2.00;1.50;;;24.00;56.10;;;;;;5015907;28;20447;-83
2024/02/04 05:34:35;;;;;;;1.83;1.20;;;24.00;56.00;;;;;;5015820;28;20446;-83
2024/02/04 05:37:02;;;;;;;1.67;1.27;;;24.00;56.00;;;;;;5015776;28;21033;-83
2024/02/04 05:39:29;;;;;;;1.60;1.20;;;24.00;56.00;;;;;;5015765;28;20454;-83
2024/02/04 05:41:56;;;;;;;1.60;1.10;;;24.00;55.90;;;;;;5015796;28;20451;-83
2024/02/04 05:44:23;;;;;;;1.70;1.30;;;24.00;55.90;;;;;;5015541;28;20442;-83
2024/02/04 05:46:49;;;;;;;1.70;1.30;;;24.00;55.90;;;;;;5015704;28;20447;-83
2024/02/04 05:49:16;;;;;;;1.50;1.00;;;24.00;55.90;;;;;;5015424;28;20485;-83
2024/02/04 05:51:45;;;;;;;1.97;1.30;;;24.00;55.80;;;;;;5014287;28;20483;-83
2024/02/04 05:54:12;;;;;;;2.27;1.30;;;24.00;55.90;;;;;;5015654;28;20443;-82
2024/02/04 05:56:38;;;;;;;1.80;1.20;;;24.00;55.90;;;;;;5026430;28;20454;-83
2024/02/04 05:59:05;;;;;;;1.80;1.30;;;24.00;55.80;;;;;;5029081;28;20435;-83
2024/02/04 06:01:32;;;;;;;2.30;1.37;;;24.10;55.90;;;;;;5025304;28;20435;-83
2024/02/04 06:03:59;;;;;;;2.00;1.37;;;24.10;55.90;;;;;;5015263;28;20435;-83
2024/02/04 06:06:26;;;;;;;1.67;1.20;;;24.10;55.90;;;;;;5015393;28;20436;-82
2024/02/04 06:08:54;;;;;;;2.03;1.30;;;24.10;55.90;;;;;;5015389;28;20439;-82
2024/02/04 06:11:21;;;;;;;1.60;1.20;;;24.10;55.90;;;;;;5015145;28;21005;-82
2024/02/04 06:13:47;;;;;;;1.60;1.20;;;24.10;55.90;;;;;;5015291;28;20784;-82
2024/02/04 06:16:14;;;;;;;1.80;1.10;;;24.10;55.90;;;;;;5015578;28;20439;-82
2024/02/04 06:18:41;;;;;;;1.80;1.30;;;24.10;55.90;;;;;;5014961;28;20824;-83
2024/02/04 06:21:08;;;;;;;1.70;1.30;;;24.10;55.80;;;;;;5015252;28;20439;-82
2024/02/04 06:23:35;;;;;;;2.00;1.57;;;24.10;55.80;;;;;;5014923;28;20803;-83
2024/02/04 06:26:03;;;;;;;1.47;1.00;;;24.10;55.80;;;;;;5014929;28;20431;-82
2024/02/04 06:28:30;;;;;;;1.70;1.20;;;24.10;55.80;;;;;;5015260;28;20449;-82
2024/02/04 06:30:57;;;;;;;1.60;1.10;;;24.10;55.80;;;;;;5015826;28;20478;-82
2024/02/04 06:33:24;;;;;;;1.50;1.00;;;24.10;55.80;;;;;;5015676;28;20459;-92
2024/02/04 06:35:51;;;;;;;1.50;1.00;;;24.10;55.70;;;;;;5015893;28;20538;-85
2024/02/04 06:38:21;;;;;;;1.60;1.17;;;24.30;55.90;;;;;;5016398;28;20440;-90
2024/02/04 06:40:48;;;;;;;1.90;1.17;;;24.10;55.70;;;;;;5015663;28;20446;-82
2024/02/04 06:43:16;;;;;;;1.70;1.50;;;24.10;55.70;;;;;;5015403;28;20449;-80
2024/02/04 06:45:43;;;;;;;1.67;1.30;;;24.10;55.70;;;;;;5015759;28;20805;-82
2024/02/04 06:48:10;;;;;;;1.60;1.13;;;24.10;55.70;;;;;;5014696;28;20465;-82
2024/02/04 06:50:36;;;;;;;1.50;1.10;;;24.20;55.80;;;;;;5015551;28;20581;-82
2024/02/04 06:53:04;;;;;;;2.00;1.43;;;24.20;55.80;;;;;;5030671;28;20492;-82
2024/02/04 06:55:30;;;;;;;1.77;1.20;;;24.20;55.80;;;;;;5034606;28;20439;-83
2024/02/04 06:57:57;;;;;;;1.70;1.20;;;24.20;55.80;;;;;;5034359;28;20434;-83
2024/02/04 07:00:25;;;;;;;2.63;1.20;;;24.20;55.80;;;;;;5034570;28;20529;-83
2024/02/04 07:02:52;;;;;;;1.70;1.13;;;24.20;55.80;;;;;;5033369;28;20438;-83
2024/02/04 07:05:21;;;;;;;2.63;1.37;;;24.20;55.80;;;;;;5033423;28;20442;-83
2024/02/04 07:07:49;;;;;;;1.90;1.47;;;24.20;55.70;;;;;;5038173;28;20469;-82
2024/02/04 07:10:17;;;;;;;1.60;1.17;;;24.20;55.80;;;;;;5050141;28;20478;-83
2024/02/04 07:12:44;;;;;;;1.97;1.20;;;24.20;55.70;;;;;;5043562;28;20454;-82
2024/02/04 07:15:11;;;;;;;2.67;1.20;;;24.20;55.70;;;;;;5043790;28;20445;-82
2024/02/04 07:17:39;;;;;;;1.90;1.33;;;24.20;55.70;;;;;;5034136;28;20430;-83
2024/02/04 07:20:07;;;;;;;1.63;0.97;;;24.20;55.70;;;;;;5033883;28;20462;-83
2024/02/04 07:22:34;;;;;;;1.60;1.20;;;24.20;55.70;;;;;;5033723;28;20790;-82
2024/02/04 07:25:01;;;;;;;1.60;1.20;;;24.20;55.70;;;;;;5033503;28;20434;-83
2024/02/04 07:27:28;;;;;;;1.70;1.17;;;24.20;55.60;;;;;;5033584;28;20859;-84
2024/02/04 07:29:57;;;;;;;1.67;1.30;;;24.20;55.60;;;;;;5033305;28;20442;-82
2024/02/04 07:32:24;;;;;;;2.10;1.40;;;24.20;55.60;;;;;;5033516;28;20446;-81
2024/02/04 07:34:52;;;;;;;1.83;1.40;;;24.20;55.60;;;;;;5033846;28;20438;-82
2024/02/04 07:37:19;;;;;;;1.60;1.30;;;24.30;55.70;;;;;;5033714;28;20438;-82
2024/02/04 07:39:46;;;;;;;1.60;1.27;;;24.20;55.60;;;;;;5033460;28;20442;-82
2024/02/04 07:42:12;;;;;;;2.17;1.20;;;24.30;55.60;;;;;;5033413;28;20442;-82
2024/02/04 07:44:39;;;;;;;1.70;1.20;;;24.20;55.60;;;;;;5033633;28;20450;-82
2024/02/04 07:47:06;;;;;;;1.97;1.50;;;24.30;55.60;;;;;;5033255;28;20448;-82
2024/02/04 07:49:32;;;;;;;1.80;1.30;;;24.30;55.70;;;;;;5033489;28;20893;-82
2024/02/04 07:52:00;;;;;;;1.90;1.30;;;24.30;55.70;;;;;;5032910;28;20589;-82
2024/02/04 07:54:27;;;;;;;1.57;1.10;;;24.20;55.60;;;;;;5033361;28;20665;-82
2024/02/04 07:56:54;;;;;;;1.80;1.17;;;24.20;55.60;;;;;;5033145;28;20438;-82
2024/02/04 07:59:20;;;;;;;1.90;1.43;;;24.20;55.70;;;;;;5033340;28;20483;-82
2024/02/04 08:01:47;;;;;;;2.23;1.30;;;24.20;55.60;;;;;;5033360;28;20442;-82
2024/02/04 08:04:15;;;;;;;1.90;1.40;;;24.30;55.70;;;;;;5033414;28;20448;-82
2024/02/04 08:06:41;;;;;;;1.60;1.20;;;24.30;56.30;;;;;;5033204;28;20532;-82
2024/02/04 08:09:10;;;;;;;1.70;1.40;;;24.20;55.70;;;;;;5033292;28;20537;-85
2024/02/04 08:11:36;;;;;;;2.23;1.33;;;24.20;55.60;;;;;;5033281;28;20485;-82
2024/02/04 08:14:03;;;;;;;2.33;1.27;;;24.20;55.70;;;;;;5034630;28;20803;-82
2024/02/04 08:16:30;;;;;;;1.70;1.10;;;24.30;55.70;;;;;;5037257;28;20918;-83
2024/02/04 08:18:57;;;;;;;1.60;1.30;;;24.30;55.70;;;;;;5037072;28;20977;-82
2024/02/04 08:21:26;;;;;;;1.50;1.10;;;24.30;55.70;;;;;;5037547;28;20883;-84
2024/02/04 08:23:52;;;;;;;1.60;1.00;;;24.30;55.70;;;;;;5036925;28;20445;-83
2024/02/04 08:26:20;;;;;;;1.60;1.20;;;24.30;55.70;;;;;;5037020;28;20922;-84
2024/02/04 08:28:47;;;;;;;1.90;1.50;;;24.30;55.70;;;;;;5037183;28;20442;-83
2024/02/04 08:31:14;;;;;;;2.13;1.20;;;24.30;55.70;;;;;;5036885;28;20496;-83
2024/02/04 08:33:41;;;;;;;1.60;1.20;;;24.30;55.70;;;;;;5036998;28;20444;-84
2024/02/04 08:36:10;;;;;;;2.20;1.53;;;24.30;55.70;;;;;;5037028;28;20438;-84
2024/02/04 08:38:36;;;;;;;1.80;1.40;;;24.30;55.70;;;;;;5036773;28;20450;-84
2024/02/04 08:41:04;;;;;;;1.60;1.10;;;24.30;55.70;;;;;;5036864;28;20434;-84
2024/02/04 08:43:32;;;;;;;1.63;1.23;;;24.30;55.70;;;;;;5036898;28;20437;-93
2024/02/04 08:45:58;;;;;;;1.67;1.30;;;24.30;55.70;;;;;;5036692;28;20891;-84
2024/02/04 08:48:25;;;;;;;1.70;1.10;;;24.30;55.70;;;;;;5036539;28;20817;-83
2024/02/04 08:50:54;;;;;;;1.50;1.10;;;24.30;55.70;;;;;;5036463;28;20477;-84
2024/02/04 08:53:21;;;;;;;1.50;1.00;;;24.30;55.70;;;;;;5036491;28;20539;-83
2024/02/04 08:55:48;;;;;;;1.50;1.13;;;24.30;55.70;;;;;;5036696;28;20438;-83
2024/02/04 08:58:15;;;;;;;1.70;1.30;;;24.30;55.80;;;;;;5036522;28;20426;-83
2024/02/04 09:00:43;;;;;;;1.70;1.10;;;24.20;55.70;;;;;;5036553;28;20976;-84
2024/02/04 09:03:10;;;;;;;1.80;1.23;;;24.30;55.80;;;;;;5036475;28;20818;-83
2024/02/04 09:05:37;;;;;;;1.70;1.20;;;24.20;55.70;;;;;;5036471;28;20955;-83
2024/02/04 09:08:04;;;;;;;1.70;1.10;;;24.30;55.70;;;;;;5036375;28;20441;-83
2024/02/04 09:10:30;;;;;;;1.47;0.90;;;24.30;55.70;;;;;;5036352;28;20898;-84
2024/02/04 09:12:57;;;;;;;2.10;1.30;;;24.30;55.70;;;;;;5038748;28;20500;-80
2024/02/04 09:15:24;;;;;;;2.00;1.10;;;24.20;55.70;;;;;;5047461;28;20462;-83
2024/02/04 09:17:52;;;;;;;1.60;1.07;;;24.20;55.70;;;;;;5048290;28;20444;-82
2024/02/04 09:20:19;;;;;;;1.50;1.10;;;24.20;55.80;;;;;;5036564;28;20469;-82
2024/02/04 09:22:46;;;;;;;2.10;1.10;;;24.20;55.80;;;;;;5035766;28;20438;-82
2024/02/04 09:25:12;;;;;;;1.80;1.10;;;24.20;55.80;;;;;;5035792;28;20438;-83
2024/02/04 09:27:39;;;;;;;1.70;1.10;;;24.20;55.80;;;;;;5035821;28;20450;-83
2024/02/04 09:30:07;;;;;;;1.60;1.03;;;24.20;55.80;;;;;;5035968;28;20437;-83
2024/02/04 09:32:34;;;;;;;2.10;1.60;;;24.30;55.90;;;;;;5035684;28;20486;-84
2024/02/04 09:35:02;;;;;;;2.00;1.17;;;24.20;55.90;;;;;;5035967;28;20492;-83
2024/02/04 09:37:29;;;;;;;1.70;1.10;;;24.20;55.90;;;;;;5035692;28;20443;-83
2024/02/04 09:39:55;;;;;;;1.47;1.00;;;24.30;56.10;;;;;;5035731;28;20439;-83
2024/02/04 09:42:23;;;;;;;6.07;1.40;;;24.30;56.10;;;;;;5035902;28;20447;-83
2024/02/04 09:44:50;;;;;;;3.20;1.30;;;24.20;56.00;;;;;;5035554;28;20438;-86
2024/02/04 09:47:18;;;;;;;2.10;1.47;;;24.30;56.20;;;;;;5035508;28;20441;-84
2024/02/04 09:49:45;;;;;;;4.03;1.63;;;24.20;56.00;;;;;;5036067;28;20462;-84
2024/02/04 09:52:14;;;;;;;5.43;2.63;;;24.30;56.20;;;;;;5035947;28;20494;-84
2024/02/04 09:54:45;;;;;;;3.90;2.20;;;24.20;56.20;;;;;;5035848;28;20440;-84
2024/02/04 09:57:13;;;;;;;4.43;2.43;;;24.20;56.30;;;;;;5035895;28;20466;-87
2024/02/04 09:59:40;;;;;;;5.70;3.57;;;24.30;56.50;;;;;;5035556;28;20434;-85
2024/02/04 10:02:09;;;;;;;12.40;3.10;;;24.30;56.50;;;;;;5035542;28;20435;-83
2024/02/04 10:04:35;;;;;;;4.60;3.50;;;24.30;56.50;;;;;;5035616;28;20464;-87
2024/02/04 10:07:03;;;;;;;6.37;3.00;;;24.30;56.50;;;;;;5035324;28;20438;-84
2024/02/04 10:09:31;;;;;;;8.87;3.97;;;24.30;56.50;;;;;;5035633;28;20442;-84
2024/02/04 10:11:58;;;;;;;5.87;3.63;;;24.30;56.60;;;;;;5035467;28;20485;-83
2024/02/04 10:14:27;;;;;;;6.40;4.90;;;24.30;56.70;;;;;;5035553;28;20434;-85
2024/02/04 10:16:54;;;;;;;6.80;3.90;;;24.30;56.70;;;;;;5036273;28;20435;-83
2024/02/04 10:19:21;;;;;;;6.40;3.90;;;24.40;56.60;;;;;;5035678;28;20549;-83
2024/02/04 10:21:58;;;;;;;6.73;3.60;;;24.40;56.70;;;;;;5033134;28;20434;-83
2024/02/04 10:24:25;;;;;;;6.17;4.07;;;24.30;56.70;;;;;;5034280;28;20438;-83
2024/02/04 10:26:53;;;;;;;7.50;4.33;;;24.30;56.70;;;;;;5034990;28;20474;-83
2024/02/04 10:29:20;;;;;;;9.20;5.50;;;24.30;56.80;;;;;;5034773;28;20438;-83
2024/02/04 10:31:46;;;;;;;7.73;4.23;;;24.30;56.80;;;;;;5016810;28;20500;-83
2024/02/04 10:34:13;;;;;;;7.57;5.10;;;24.40;56.90;;;;;;5034584;28;20438;-83
2024/02/04 10:36:40;;;;;;;4.40;3.47;;;24.40;56.80;;;;;;5032363;28;20446;-81
2024/02/04 10:39:07;;;;;;;3.90;2.30;;;24.40;56.50;;;;;;5031299;28;20462;-85
2024/02/04 10:41:35;;;;;;;8.47;4.23;;;24.30;56.10;;;;;;5032703;28;20937;-82
2024/02/04 10:44:05;;;;;;;6.87;4.37;;;24.30;56.40;;;;;;5033960;28;20454;-82
2024/02/04 10:46:36;;;;;;;7.30;4.50;;;24.30;56.80;;;;;;5033197;28;20446;-84
2024/02/04 10:49:08;;;;;;;6.70;4.33;;;24.40;56.80;;;;;;5033015;28;20480;-84
2024/02/04 10:51:37;;;;;;;11.70;5.23;;;24.40;56.80;;;;;;5032028;28;20634;-84
2024/02/04 10:54:07;;;;;;;7.17;4.47;;;24.30;56.80;;;;;;5034329;28;20450;-84
2024/02/04 10:56:38;;;;;;;10.70;4.90;;;24.30;56.90;;;;;;5034420;28;20525;-84
2024/02/04 10:59:09;;;;;;;10.73;5.67;;;24.30;56.90;;;;;;5033097;28;20442;-84
2024/02/04 14:01:18;;;;;;;6.90;3.63;;;24.40;57.70;;;;;;4994376;28;20491;-83
2024/02/04 14:03:45;;;;;;;6.30;4.80;;;24.50;57.70;;;;;;4996080;28;20440;-82
2024/02/04 14:06:12;;;;;;;5.43;4.10;;;24.40;57.60;;;;;;4996112;28;20440;-83
2024/02/04 14:08:39;;;;;;;10.43;5.20;;;24.50;57.60;;;;;;4996177;28;20487;-83
2024/02/04 14:11:06;;;;;;;6.20;4.03;;;24.40;57.50;;;;;;4996010;28;20436;-82
2024/02/04 14:13:32;;;;;;;11.53;4.23;;;24.40;57.50;;;;;;4995464;28;20460;-83
2024/02/04 14:15:59;;;;;;;4.13;3.40;;;24.40;57.50;;;;;;4995986;28;20448;-82
2024/02/04 14:18:27;;;;;;;5.87;4.00;;;24.40;57.50;;;;;;4995780;28;20484;-83
2024/02/04 14:20:54;;;;;;;6.70;4.60;;;24.60;57.60;;;;;;4996012;28;20441;-82
2024/02/04 14:23:21;;;;;;;6.40;3.23;;;24.50;57.50;;;;;;4995789;28;20440;-82
2024/02/04 14:25:48;;;;;;;11.93;3.90;;;24.50;57.50;;;;;;4995677;28;20440;-88
2024/02/04 14:28:14;;;;;;;4.67;3.70;;;24.50;57.50;;;;;;5009890;28;20545;-83
2024/02/04 14:30:41;;;;;;;9.83;5.00;;;24.50;57.60;;;;;;5014980;28;20446;-83
2024/02/04 14:33:09;;;;;;;6.70;3.60;;;24.50;57.50;;;;;;5015121;28;20494;-83
2024/02/04 14:35:37;;;;;;;5.53;3.87;;;24.40;57.50;;;;;;5015204;28;20446;-82
2024/02/04 14:38:04;;;;;;;5.00;3.60;;;24.50;57.50;;;;;;5015103;28;20447;-82
2024/02/04 14:40:31;;;;;;;3.63;2.87;;;24.50;57.50;;;;;;5014852;28;20809;-82
2024/02/04 14:42:58;;;;;;;5.27;3.50;;;24.40;57.40;;;;;;5015033;28;20613;-82
2024/02/04 14:45:24;;;;;;;4.30;3.50;;;24.40;57.40;;;;;;5014811;28;20454;-82
2024/02/04 14:47:51;;;;;;;3.97;3.40;;;24.40;57.30;;;;;;5014868;28;20534;-82
2024/02/04 14:50:18;;;;;;;5.97;3.60;;;24.50;57.40;;;;;;5015035;28;20441;-88
2024/02/04 14:52:46;;;;;;;5.63;3.37;;;24.50;57.40;;;;;;5014796;28;20501;-82
2024/02/04 14:55:13;;;;;;;5.10;3.50;;;24.50;57.40;;;;;;5014620;28;20955;-86
2024/02/04 14:57:40;;;;;;;4.23;3.20;;;24.40;57.30;;;;;;5014645;28;20435;-83
2024/02/04 15:00:09;;;;;;;3.87;3.00;;;24.40;57.30;;;;;;5014656;28;20439;-83
2024/02/04 15:02:36;;;;;;;8.00;3.00;;;24.40;57.30;;;;;;5014694;28;20530;-82
2024/02/04 15:05:03;;;;;;;4.27;3.13;;;24.30;57.20;;;;;;5014491;28;20806;-82
2024/02/04 15:07:30;;;;;;;5.53;3.50;;;24.50;57.30;;;;;;5014517;28;20446;-83
2024/02/04 15:09:59;;;;;;;5.27;2.97;;;24.50;57.30;;;;;;5014212;28;20526;-83
2024/02/04 15:12:27;;;;;;;4.13;3.40;;;24.50;57.30;;;;;;5014232;28;20497;-83
2024/02/04 15:14:54;;;;;;;4.13;3.10;;;24.50;57.20;;;;;;5014470;28;20474;-82
2024/02/04 15:17:21;;;;;;;3.67;2.90;;;24.40;57.20;;;;;;5014348;28;20447;-89
2024/02/04 15:19:49;;;;;;;4.43;2.73;;;24.50;57.20;;;;;;5014157;28;20455;-83
2024/02/04 15:22:16;;;;;;;3.90;2.90;;;24.50;57.20;;;;;;5014501;28;20436;-87
2024/02/04 15:24:43;;;;;;;5.00;2.87;;;24.50;57.20;;;;;;5013826;28;20443;-83
2024/02/04 15:27:12;;;;;;;3.97;3.17;;;24.50;57.20;;;;;;5013817;28;21036;-83
2024/02/04 15:29:40;;;;;;;3.70;2.67;;;24.40;57.20;;;;;;5014446;28;20435;-82
2024/02/04 15:32:08;;;;;;;3.37;2.83;;;24.40;57.20;;;;;;5014136;28;20625;-82
2024/02/04 15:34:35;;;;;;;4.33;2.60;;;24.40;57.20;;;;;;5014135;28;20439;-83
2024/02/04 15:37:03;;;;;;;3.53;3.03;;;24.40;57.10;;;;;;5013943;28;20883;-82
2024/02/04 15:39:30;;;;;;;3.40;2.67;;;24.50;57.20;;;;;;5013846;28;20450;-82
2024/02/04 15:41:57;;;;;;;3.00;2.70;;;24.50;57.20;;;;;;5013855;28;20439;-82
2024/02/04 15:44:25;;;;;;;4.13;2.87;;;24.50;57.20;;;;;;5013924;28;20926;-82
2024/02/04 15:46:53;;;;;;;4.83;3.37;;;24.50;57.10;;;;;;5014084;28;20439;-83